Terminal Aerodrome Forecast
Issued by NWS

Home | Current Version | Previous Version | Text Only | Print | Product List | Glossary On
Versions: 1 2 3 4 5 6 7 8 9 10 11 12 13 14 15 16 17 18 19 20 21
000
FTUS45 KSLC 230603 AAA
TAFENV
TAF AMD
KENV 230603Z 2306/2406 30012G20KT P6SM VCSH SCT070 BKN100
     FM231200 29008KT P6SM SCT120
     FM240300 VRB04KT P6SM BKN150
      AMD LTD TO CLD VIS AND WIND=

USA.gov is the U.S. government's official web portal to all federal, state and local government web resources and services.